sensor_id;sensor_type;location;lat;lon;timestamp;pressure;altitude;pressure_sealevel;temperature
19644;BMP180;9970;-36.854;174.870;2024-02-04T00:00:04;101219.00;;;23.30
19644;BMP180;9970;-36.854;174.870;2024-02-04T00:02:38;101224.00;;;23.40
19644;BMP180;9970;-36.854;174.870;2024-02-04T00:05:11;101222.00;;;23.40
19644;BMP180;9970;-36.854;174.870;2024-02-04T00:07:44;101211.00;;;23.30
19644;BMP180;9970;-36.854;174.870;2024-02-04T00:10:18;101210.00;;;23.30
19644;BMP180;9970;-36.854;174.870;2024-02-04T00:12:51;101213.00;;;23.30
19644;BMP180;9970;-36.854;174.870;2024-02-04T00:15:24;101226.00;;;23.40
19644;BMP180;9970;-36.854;174.870;2024-02-04T00:17:57;101219.00;;;23.40
19644;BMP180;9970;-36.854;174.870;2024-02-04T00:20:31;101222.00;;;23.50
19644;BMP180;9970;-36.854;174.870;2024-02-04T00:23:05;101236.00;;;23.60
19644;BMP180;9970;-36.854;174.870;2024-02-04T00:25:38;101241.00;;;23.60
19644;BMP180;9970;-36.854;174.870;2024-02-04T00:28:12;101236.00;;;23.60
19644;BMP180;9970;-36.854;174.870;2024-02-04T00:30:46;101238.00;;;23.70
19644;BMP180;9970;-36.854;174.870;2024-02-04T00:33:20;101241.00;;;23.70
19644;BMP180;9970;-36.854;174.870;2024-02-04T00:35:54;101240.00;;;23.70
19644;BMP180;9970;-36.854;174.870;2024-02-04T00:38:27;101251.00;;;23.70
19644;BMP180;9970;-36.854;174.870;2024-02-04T00:41:02;101244.00;;;23.70
19644;BMP180;9970;-36.854;174.870;2024-02-04T00:43:35;101263.00;;;23.70
19644;BMP180;9970;-36.854;174.870;2024-02-04T00:46:09;101254.00;;;23.70
19644;BMP180;9970;-36.854;174.870;2024-02-04T00:48:45;101241.00;;;23.80
19644;BMP180;9970;-36.854;174.870;2024-02-04T00:51:18;101250.00;;;23.80
19644;BMP180;9970;-36.854;174.870;2024-02-04T00:53:52;101254.00;;;23.70
19644;BMP180;9970;-36.854;174.870;2024-02-04T00:56:26;101253.00;;;23.70
19644;BMP180;9970;-36.854;174.870;2024-02-04T00:58:59;101264.00;;;23.70
19644;BMP180;9970;-36.854;174.870;2024-02-04T01:01:33;101270.00;;;23.70
19644;BMP180;9970;-36.854;174.870;2024-02-04T01:04:07;101262.00;;;23.70
19644;BMP180;9970;-36.854;174.870;2024-02-04T01:06:41;101257.00;;;23.70
19644;BMP180;9970;-36.854;174.870;2024-02-04T01:09:16;101263.00;;;23.70
19644;BMP180;9970;-36.854;174.870;2024-02-04T01:11:50;101274.00;;;23.70
19644;BMP180;9970;-36.854;174.870;2024-02-04T01:14:24;101274.00;;;23.70
19644;BMP180;9970;-36.854;174.870;2024-02-04T01:16:58;101277.00;;;23.70
19644;BMP180;9970;-36.854;174.870;2024-02-04T01:19:31;101279.00;;;23.80
19644;BMP180;9970;-36.854;174.870;2024-02-04T01:22:05;101286.00;;;23.90
19644;BMP180;9970;-36.854;174.870;2024-02-04T01:24:38;101294.00;;;23.90
19644;BMP180;9970;-36.854;174.870;2024-02-04T01:27:12;101286.00;;;23.80
19644;BMP180;9970;-36.854;174.870;2024-02-04T01:29:45;101296.00;;;23.80
19644;BMP180;9970;-36.854;174.870;2024-02-04T01:32:21;101301.00;;;23.80
19644;BMP180;9970;-36.854;174.870;2024-02-04T01:34:55;101293.00;;;23.80
19644;BMP180;9970;-36.854;174.870;2024-02-04T01:37:34;101296.00;;;23.90
19644;BMP180;9970;-36.854;174.870;2024-02-04T01:40:08;101290.00;;;23.90
19644;BMP180;9970;-36.854;174.870;2024-02-04T01:42:42;101296.00;;;24.00
19644;BMP180;9970;-36.854;174.870;2024-02-04T01:45:16;101290.00;;;24.10
19644;BMP180;9970;-36.854;174.870;2024-02-04T01:47:50;101299.00;;;24.20
19644;BMP180;9970;-36.854;174.870;2024-02-04T01:50:24;101301.00;;;24.20
19644;BMP180;9970;-36.854;174.870;2024-02-04T01:52:58;101295.00;;;24.30
19644;BMP180;9970;-36.854;174.870;2024-02-04T01:55:32;101298.00;;;24.30
19644;BMP180;9970;-36.854;174.870;2024-02-04T01:58:06;101299.00;;;24.30
19644;BMP180;9970;-36.854;174.870;2024-02-04T02:00:40;101302.00;;;24.30
19644;BMP180;9970;-36.854;174.870;2024-02-04T02:03:18;101306.00;;;24.30
19644;BMP180;9970;-36.854;174.870;2024-02-04T02:05:51;101300.00;;;24.30
19644;BMP180;9970;-36.854;174.870;2024-02-04T02:08:25;101299.00;;;24.40
19644;BMP180;9970;-36.854;174.870;2024-02-04T02:11:02;101305.00;;;24.40
19644;BMP180;9970;-36.854;174.870;2024-02-04T02:13:34;101304.00;;;24.30
19644;BMP180;9970;-36.854;174.870;2024-02-04T02:16:13;101316.00;;;24.40
19644;BMP180;9970;-36.854;174.870;2024-02-04T02:18:57;101301.00;;;24.30
19644;BMP180;9970;-36.854;174.870;2024-02-04T02:21:52;101305.00;;;24.30
19644;BMP180;9970;-36.854;174.870;2024-02-04T02:24:40;101295.00;;;24.30
19644;BMP180;9970;-36.854;174.870;2024-02-04T02:27:12;101300.00;;;24.20
19644;BMP180;9970;-36.854;174.870;2024-02-04T02:29:46;101297.00;;;24.30
19644;BMP180;9970;-36.854;174.870;2024-02-04T02:32:19;101313.00;;;24.20
19644;BMP180;9970;-36.854;174.870;2024-02-04T02:34:52;101315.00;;;24.20
19644;BMP180;9970;-36.854;174.870;2024-02-04T02:37:32;101301.00;;;24.20
19644;BMP180;9970;-36.854;174.870;2024-02-04T02:43:00;101307.00;;;24.20
19644;BMP180;9970;-36.854;174.870;2024-02-04T02:45:35;101299.00;;;24.20
19644;BMP180;9970;-36.854;174.870;2024-02-04T02:48:10;101298.00;;;24.20
19644;BMP180;9970;-36.854;174.870;2024-02-04T02:50:44;101305.00;;;24.20
19644;BMP180;9970;-36.854;174.870;2024-02-04T02:53:18;101293.00;;;24.10
19644;BMP180;9970;-36.854;174.870;2024-02-04T02:55:51;101294.00;;;24.10
19644;BMP180;9970;-36.854;174.870;2024-02-04T02:58:25;101308.00;;;24.00
19644;BMP180;9970;-36.854;174.870;2024-02-04T03:00:58;101307.00;;;24.00
19644;BMP180;9970;-36.854;174.870;2024-02-04T03:03:31;101312.00;;;24.00
19644;BMP180;9970;-36.854;174.870;2024-02-04T03:06:05;101302.00;;;24.00
19644;BMP180;9970;-36.854;174.870;2024-02-04T03:08:39;101312.00;;;24.10
19644;BMP180;9970;-36.854;174.870;2024-02-04T03:11:12;101311.00;;;24.10
19644;BMP180;9970;-36.854;174.870;2024-02-04T03:13:46;101308.00;;;24.10
19644;BMP180;9970;-36.854;174.870;2024-02-04T03:16:19;101323.00;;;24.10
19644;BMP180;9970;-36.854;174.870;2024-02-04T03:18:53;101320.00;;;24.20
19644;BMP180;9970;-36.854;174.870;2024-02-04T03:21:30;101316.00;;;24.10
19644;BMP180;9970;-36.854;174.870;2024-02-04T03:24:04;101320.00;;;24.20
19644;BMP180;9970;-36.854;174.870;2024-02-04T03:26:38;101320.00;;;24.20
19644;BMP180;9970;-36.854;174.870;2024-02-04T03:29:11;101325.00;;;24.10
19644;BMP180;9970;-36.854;174.870;2024-02-04T03:31:44;101320.00;;;24.10
19644;BMP180;9970;-36.854;174.870;2024-02-04T03:34:18;101328.00;;;24.10
19644;BMP180;9970;-36.854;174.870;2024-02-04T03:36:51;101323.00;;;24.10
19644;BMP180;9970;-36.854;174.870;2024-02-04T03:39:24;101321.00;;;24.10
19644;BMP180;9970;-36.854;174.870;2024-02-04T03:41:58;101323.00;;;24.10
19644;BMP180;9970;-36.854;174.870;2024-02-04T03:44:31;101329.00;;;24.10
19644;BMP180;9970;-36.854;174.870;2024-02-04T03:47:05;101326.00;;;24.10
19644;BMP180;9970;-36.854;174.870;2024-02-04T03:49:38;101333.00;;;24.00
19644;BMP180;9970;-36.854;174.870;2024-02-04T03:52:12;101325.00;;;24.00
19644;BMP180;9970;-36.854;174.870;2024-02-04T03:54:49;101336.00;;;24.00
19644;BMP180;9970;-36.854;174.870;2024-02-04T03:57:23;101327.00;;;24.00
19644;BMP180;9970;-36.854;174.870;2024-02-04T03:59:56;101332.00;;;23.90
19644;BMP180;9970;-36.854;174.870;2024-02-04T04:02:29;101333.00;;;24.00
19644;BMP180;9970;-36.854;174.870;2024-02-04T04:05:02;101337.00;;;24.00
19644;BMP180;9970;-36.854;174.870;2024-02-04T04:07:37;101333.00;;;24.00
19644;BMP180;9970;-36.854;174.870;2024-02-04T04:10:11;101323.00;;;24.00
19644;BMP180;9970;-36.854;174.870;2024-02-04T04:12:45;101334.00;;;24.00
19644;BMP180;9970;-36.854;174.870;2024-02-04T04:15:18;101337.00;;;23.90
19644;BMP180;9970;-36.854;174.870;2024-02-04T04:17:52;101337.00;;;23.90
19644;BMP180;9970;-36.854;174.870;2024-02-04T04:20:25;101335.00;;;23.90
19644;BMP180;9970;-36.854;174.870;2024-02-04T04:22:58;101340.00;;;23.90
19644;BMP180;9970;-36.854;174.870;2024-02-04T04:25:32;101340.00;;;23.90
19644;BMP180;9970;-36.854;174.870;2024-02-04T04:28:05;101343.00;;;23.80
19644;BMP180;9970;-36.854;174.870;2024-02-04T04:30:39;101345.00;;;23.80
19644;BMP180;9970;-36.854;174.870;2024-02-04T04:33:12;101349.00;;;23.70
19644;BMP180;9970;-36.854;174.870;2024-02-04T04:35:45;101347.00;;;23.70
19644;BMP180;9970;-36.854;174.870;2024-02-04T04:38:18;101360.00;;;23.70
19644;BMP180;9970;-36.854;174.870;2024-02-04T04:40:52;101350.00;;;23.60
19644;BMP180;9970;-36.854;174.870;2024-02-04T04:43:25;101351.00;;;23.60
19644;BMP180;9970;-36.854;174.870;2024-02-04T04:45:58;101350.00;;;23.60
19644;BMP180;9970;-36.854;174.870;2024-02-04T04:48:32;101359.00;;;23.60
19644;BMP180;9970;-36.854;174.870;2024-02-04T04:51:07;101349.00;;;23.50
19644;BMP180;9970;-36.854;174.870;2024-02-04T04:53:39;101352.00;;;23.50
19644;BMP180;9970;-36.854;174.870;2024-02-04T04:56:12;101357.00;;;23.50
19644;BMP180;9970;-36.854;174.870;2024-02-04T04:58:46;101348.00;;;23.50
19644;BMP180;9970;-36.854;174.870;2024-02-04T05:01:19;101343.00;;;23.50
19644;BMP180;9970;-36.854;174.870;2024-02-04T05:03:52;101350.00;;;23.40
19644;BMP180;9970;-36.854;174.870;2024-02-04T05:06:26;101349.00;;;23.40
19644;BMP180;9970;-36.854;174.870;2024-02-04T05:08:59;101357.00;;;23.40
19644;BMP180;9970;-36.854;174.870;2024-02-04T05:11:33;101356.00;;;23.40
19644;BMP180;9970;-36.854;174.870;2024-02-04T05:14:06;101351.00;;;23.40
19644;BMP180;9970;-36.854;174.870;2024-02-04T05:16:39;101358.00;;;23.30
19644;BMP180;9970;-36.854;174.870;2024-02-04T05:19:12;101365.00;;;23.30
19644;BMP180;9970;-36.854;174.870;2024-02-04T05:21:45;101368.00;;;23.20
19644;BMP180;9970;-36.854;174.870;2024-02-04T05:24:19;101365.00;;;23.20
19644;BMP180;9970;-36.854;174.870;2024-02-04T05:26:52;101371.00;;;23.20
19644;BMP180;9970;-36.854;174.870;2024-02-04T05:29:25;101369.00;;;23.10
19644;BMP180;9970;-36.854;174.870;2024-02-04T05:31:58;101365.00;;;23.10
19644;BMP180;9970;-36.854;174.870;2024-02-04T05:34:31;101368.00;;;23.10
19644;BMP180;9970;-36.854;174.870;2024-02-04T05:37:05;101366.00;;;23.10
19644;BMP180;9970;-36.854;174.870;2024-02-04T05:39:38;101373.00;;;23.10
19644;BMP180;9970;-36.854;174.870;2024-02-04T05:42:12;101374.00;;;23.10
19644;BMP180;9970;-36.854;174.870;2024-02-04T05:44:45;101374.00;;;23.00
19644;BMP180;9970;-36.854;174.870;2024-02-04T05:47:18;101373.00;;;23.00
19644;BMP180;9970;-36.854;174.870;2024-02-04T05:49:51;101389.00;;;23.00
19644;BMP180;9970;-36.854;174.870;2024-02-04T05:52:25;101380.00;;;22.90
19644;BMP180;9970;-36.854;174.870;2024-02-04T05:54:58;101385.00;;;22.90
19644;BMP180;9970;-36.854;174.870;2024-02-04T05:57:32;101382.00;;;22.90
19644;BMP180;9970;-36.854;174.870;2024-02-04T06:00:07;101393.00;;;22.80
19644;BMP180;9970;-36.854;174.870;2024-02-04T06:02:41;101386.00;;;22.80
19644;BMP180;9970;-36.854;174.870;2024-02-04T06:05:15;101390.00;;;22.80
19644;BMP180;9970;-36.854;174.870;2024-02-04T06:07:49;101397.00;;;22.70
19644;BMP180;9970;-36.854;174.870;2024-02-04T06:10:22;101403.00;;;22.70
19644;BMP180;9970;-36.854;174.870;2024-02-04T06:12:55;101410.00;;;22.70
19644;BMP180;9970;-36.854;174.870;2024-02-04T06:15:28;101422.00;;;22.70
19644;BMP180;9970;-36.854;174.870;2024-02-04T06:18:02;101425.00;;;22.60
19644;BMP180;9970;-36.854;174.870;2024-02-04T06:20:40;101426.00;;;22.60
19644;BMP180;9970;-36.854;174.870;2024-02-04T06:23:13;101426.00;;;22.60
19644;BMP180;9970;-36.854;174.870;2024-02-04T06:25:46;101439.00;;;22.60
19644;BMP180;9970;-36.854;174.870;2024-02-04T06:28:20;101442.00;;;22.50
19644;BMP180;9970;-36.854;174.870;2024-02-04T06:30:53;101446.00;;;22.50
19644;BMP180;9970;-36.854;174.870;2024-02-04T06:33:26;101449.00;;;22.50
19644;BMP180;9970;-36.854;174.870;2024-02-04T06:36:00;101446.00;;;22.50
19644;BMP180;9970;-36.854;174.870;2024-02-04T06:38:33;101445.00;;;22.50
19644;BMP180;9970;-36.854;174.870;2024-02-04T06:41:06;101450.00;;;22.40
19644;BMP180;9970;-36.854;174.870;2024-02-04T06:43:39;101461.00;;;22.40
19644;BMP180;9970;-36.854;174.870;2024-02-04T06:46:13;101459.00;;;22.40
19644;BMP180;9970;-36.854;174.870;2024-02-04T06:48:46;101457.00;;;22.30
19644;BMP180;9970;-36.854;174.870;2024-02-04T06:51:19;101459.00;;;22.30
19644;BMP180;9970;-36.854;174.870;2024-02-04T06:53:52;101467.00;;;22.30
19644;BMP180;9970;-36.854;174.870;2024-02-04T06:56:25;101473.00;;;22.20
19644;BMP180;9970;-36.854;174.870;2024-02-04T06:58:59;101484.00;;;22.20
19644;BMP180;9970;-36.854;174.870;2024-02-04T07:01:32;101486.00;;;22.20
19644;BMP180;9970;-36.854;174.870;2024-02-04T07:04:07;101483.00;;;22.20
19644;BMP180;9970;-36.854;174.870;2024-02-04T07:06:40;101487.00;;;22.20
19644;BMP180;9970;-36.854;174.870;2024-02-04T07:09:13;101494.00;;;22.10
19644;BMP180;9970;-36.854;174.870;2024-02-04T07:11:47;101494.00;;;22.10
19644;BMP180;9970;-36.854;174.870;2024-02-04T07:14:23;101489.00;;;22.00
19644;BMP180;9970;-36.854;174.870;2024-02-04T07:16:56;101496.00;;;21.90
19644;BMP180;9970;-36.854;174.870;2024-02-04T07:19:29;101490.00;;;21.90
19644;BMP180;9970;-36.854;174.870;2024-02-04T07:22:02;101499.00;;;21.90
19644;BMP180;9970;-36.854;174.870;2024-02-04T07:24:36;101507.00;;;21.90
19644;BMP180;9970;-36.854;174.870;2024-02-04T07:27:09;101500.00;;;21.90
19644;BMP180;9970;-36.854;174.870;2024-02-04T07:29:42;101502.00;;;21.80
19644;BMP180;9970;-36.854;174.870;2024-02-04T07:32:18;101502.00;;;21.80
19644;BMP180;9970;-36.854;174.870;2024-02-04T07:34:52;101516.00;;;21.80
19644;BMP180;9970;-36.854;174.870;2024-02-04T07:37:25;101522.00;;;21.80
19644;BMP180;9970;-36.854;174.870;2024-02-04T07:39:58;101515.00;;;21.70
19644;BMP180;9970;-36.854;174.870;2024-02-04T07:42:31;101502.00;;;21.70
19644;BMP180;9970;-36.854;174.870;2024-02-04T07:45:05;101509.00;;;21.70
19644;BMP180;9970;-36.854;174.870;2024-02-04T07:47:40;101522.00;;;21.70
19644;BMP180;9970;-36.854;174.870;2024-02-04T07:50:13;101528.00;;;21.70
19644;BMP180;9970;-36.854;174.870;2024-02-04T07:52:46;101531.00;;;21.60
19644;BMP180;9970;-36.854;174.870;2024-02-04T07:55:20;101526.00;;;21.60
19644;BMP180;9970;-36.854;174.870;2024-02-04T07:57:53;101537.00;;;21.60
19644;BMP180;9970;-36.854;174.870;2024-02-04T08:00:27;101547.00;;;21.60
19644;BMP180;9970;-36.854;174.870;2024-02-04T08:03:00;101551.00;;;21.50
19644;BMP180;9970;-36.854;174.870;2024-02-04T08:05:33;101546.00;;;21.60
19644;BMP180;9970;-36.854;174.870;2024-02-04T08:08:07;101547.00;;;21.50
19644;BMP180;9970;-36.854;174.870;2024-02-04T08:10:40;101539.00;;;21.50
19644;BMP180;9970;-36.854;174.870;2024-02-04T08:13:13;101553.00;;;21.50
19644;BMP180;9970;-36.854;174.870;2024-02-04T08:15:46;101559.00;;;21.50
19644;BMP180;9970;-36.854;174.870;2024-02-04T08:18:19;101562.00;;;21.40
19644;BMP180;9970;-36.854;174.870;2024-02-04T08:20:53;101564.00;;;21.40
19644;BMP180;9970;-36.854;174.870;2024-02-04T08:23:26;101566.00;;;21.40
19644;BMP180;9970;-36.854;174.870;2024-02-04T08:26:00;101567.00;;;21.40
19644;BMP180;9970;-36.854;174.870;2024-02-04T08:28:34;101575.00;;;21.40
19644;BMP180;9970;-36.854;174.870;2024-02-04T08:31:07;101585.00;;;21.30
19644;BMP180;9970;-36.854;174.870;2024-02-04T08:33:40;101595.00;;;21.30
19644;BMP180;9970;-36.854;174.870;2024-02-04T08:36:14;101593.00;;;21.30
19644;BMP180;9970;-36.854;174.870;2024-02-04T08:38:47;101601.00;;;21.30
19644;BMP180;9970;-36.854;174.870;2024-02-04T08:41:20;101598.00;;;21.30
19644;BMP180;9970;-36.854;174.870;2024-02-04T08:43:53;101605.00;;;21.30
19644;BMP180;9970;-36.854;174.870;2024-02-04T08:46:27;101614.00;;;21.20
19644;BMP180;9970;-36.854;174.870;2024-02-04T08:49:00;101616.00;;;21.20
19644;BMP180;9970;-36.854;174.870;2024-02-04T08:51:33;101619.00;;;21.20
19644;BMP180;9970;-36.854;174.870;2024-02-04T08:54:07;101622.00;;;21.20
19644;BMP180;9970;-36.854;174.870;2024-02-04T08:56:43;101632.00;;;21.20
19644;BMP180;9970;-36.854;174.870;2024-02-04T08:59:18;101633.00;;;21.10
19644;BMP180;9970;-36.854;174.870;2024-02-04T09:01:52;101651.00;;;21.10
19644;BMP180;9970;-36.854;174.870;2024-02-04T09:04:25;101652.00;;;21.10
19644;BMP180;9970;-36.854;174.870;2024-02-04T09:06:58;101657.00;;;21.00
19644;BMP180;9970;-36.854;174.870;2024-02-04T09:09:32;101662.00;;;21.00
19644;BMP180;9970;-36.854;174.870;2024-02-04T09:12:05;101656.00;;;20.90
19644;BMP180;9970;-36.854;174.870;2024-02-04T09:14:38;101659.00;;;20.90
19644;BMP180;9970;-36.854;174.870;2024-02-04T09:17:12;101663.00;;;20.90
19644;BMP180;9970;-36.854;174.870;2024-02-04T09:19:45;101664.00;;;20.80
19644;BMP180;9970;-36.854;174.870;2024-02-04T09:22:18;101666.00;;;20.80
19644;BMP180;9970;-36.854;174.870;2024-02-04T09:24:51;101662.00;;;20.80
19644;BMP180;9970;-36.854;174.870;2024-02-04T09:27:25;101671.00;;;20.80
19644;BMP180;9970;-36.854;174.870;2024-02-04T09:29:58;101678.00;;;20.80
19644;BMP180;9970;-36.854;174.870;2024-02-04T09:32:32;101673.00;;;20.70
19644;BMP180;9970;-36.854;174.870;2024-02-04T09:35:06;101677.00;;;20.70
19644;BMP180;9970;-36.854;174.870;2024-02-04T09:37:41;101671.00;;;20.70
19644;BMP180;9970;-36.854;174.870;2024-02-04T09:40:15;101679.00;;;20.70
19644;BMP180;9970;-36.854;174.870;2024-02-04T09:42:52;101684.00;;;20.60
19644;BMP180;9970;-36.854;174.870;2024-02-04T09:45:27;101685.00;;;20.60
19644;BMP180;9970;-36.854;174.870;2024-02-04T09:48:02;101681.00;;;20.60
19644;BMP180;9970;-36.854;174.870;2024-02-04T09:50:38;101682.00;;;20.60
19644;BMP180;9970;-36.854;174.870;2024-02-04T09:53:12;101699.00;;;20.50
19644;BMP180;9970;-36.854;174.870;2024-02-04T09:55:47;101700.00;;;20.50
19644;BMP180;9970;-36.854;174.870;2024-02-04T09:58:21;101688.00;;;20.50
19644;BMP180;9970;-36.854;174.870;2024-02-04T10:00:55;101683.00;;;20.50
19644;BMP180;9970;-36.854;174.870;2024-02-04T10:03:28;101687.00;;;20.50
19644;BMP180;9970;-36.854;174.870;2024-02-04T10:06:02;101696.00;;;20.50
19644;BMP180;9970;-36.854;174.870;2024-02-04T10:08:36;101702.00;;;20.50
19644;BMP180;9970;-36.854;174.870;2024-02-04T10:11:10;101695.00;;;20.40
19644;BMP180;9970;-36.854;174.870;2024-02-04T10:13:48;101691.00;;;20.40
19644;BMP180;9970;-36.854;174.870;2024-02-04T10:16:22;101709.00;;;20.40
19644;BMP180;9970;-36.854;174.870;2024-02-04T10:18:55;101709.00;;;20.40
19644;BMP180;9970;-36.854;174.870;2024-02-04T10:21:29;101710.00;;;20.40
19644;BMP180;9970;-36.854;174.870;2024-02-04T10:24:02;101700.00;;;20.30
19644;BMP180;9970;-36.854;174.870;2024-02-04T10:26:35;101708.00;;;20.30
19644;BMP180;9970;-36.854;174.870;2024-02-04T10:29:09;101711.00;;;20.30
19644;BMP180;9970;-36.854;174.870;2024-02-04T10:31:42;101703.00;;;20.30
19644;BMP180;9970;-36.854;174.870;2024-02-04T10:34:15;101707.00;;;20.30
19644;BMP180;9970;-36.854;174.870;2024-02-04T10:36:48;101709.00;;;20.30
19644;BMP180;9970;-36.854;174.870;2024-02-04T10:39:22;101703.00;;;20.30
19644;BMP180;9970;-36.854;174.870;2024-02-04T10:41:56;101713.00;;;20.20
19644;BMP180;9970;-36.854;174.870;2024-02-04T10:44:32;101709.00;;;20.20
19644;BMP180;9970;-36.854;174.870;2024-02-04T10:47:06;101709.00;;;20.20
19644;BMP180;9970;-36.854;174.870;2024-02-04T10:49:41;101704.00;;;20.20
19644;BMP180;9970;-36.854;174.870;2024-02-04T10:52:17;101715.00;;;20.20
19644;BMP180;9970;-36.854;174.870;2024-02-04T10:54:50;101707.00;;;20.20
19644;BMP180;9970;-36.854;174.870;2024-02-04T10:57:23;101708.00;;;20.10
19644;BMP180;9970;-36.854;174.870;2024-02-04T10:59:57;101710.00;;;20.10
19644;BMP180;9970;-36.854;174.870;2024-02-04T11:02:31;101713.00;;;20.10
19644;BMP180;9970;-36.854;174.870;2024-02-04T11:05:07;101715.00;;;20.10
19644;BMP180;9970;-36.854;174.870;2024-02-04T11:07:41;101722.00;;;20.10
19644;BMP180;9970;-36.854;174.870;2024-02-04T11:10:14;101713.00;;;20.00
19644;BMP180;9970;-36.854;174.870;2024-02-04T11:12:48;101714.00;;;20.00
19644;BMP180;9970;-36.854;174.870;2024-02-04T11:15:22;101711.00;;;20.00
19644;BMP180;9970;-36.854;174.870;2024-02-04T11:18:11;101709.00;;;20.00
19644;BMP180;9970;-36.854;174.870;2024-02-04T11:26:29;101715.00;;;19.90
19644;BMP180;9970;-36.854;174.870;2024-02-04T11:29:03;101708.00;;;19.90
19644;BMP180;9970;-36.854;174.870;2024-02-04T11:31:38;101713.00;;;19.90
19644;BMP180;9970;-36.854;174.870;2024-02-04T11:34:11;101714.00;;;19.80
19644;BMP180;9970;-36.854;174.870;2024-02-04T11:36:45;101704.00;;;19.80
19644;BMP180;9970;-36.854;174.870;2024-02-04T11:39:23;101698.00;;;19.80
19644;BMP180;9970;-36.854;174.870;2024-02-04T11:41:56;101712.00;;;19.80
19644;BMP180;9970;-36.854;174.870;2024-02-04T11:44:30;101707.00;;;19.80
19644;BMP180;9970;-36.854;174.870;2024-02-04T11:47:03;101702.00;;;19.80
19644;BMP180;9970;-36.854;174.870;2024-02-04T11:49:36;101703.00;;;19.80
19644;BMP180;9970;-36.854;174.870;2024-02-04T11:52:18;101697.00;;;19.70
19644;BMP180;9970;-36.854;174.870;2024-02-04T11:54:46;101693.00;;;19.70
19644;BMP180;9970;-36.854;174.870;2024-02-04T11:57:19;101690.00;;;19.70
19644;BMP180;9970;-36.854;174.870;2024-02-04T11:59:54;101701.00;;;19.70
19644;BMP180;9970;-36.854;174.870;2024-02-04T12:02:27;101692.00;;;19.70
19644;BMP180;9970;-36.854;174.870;2024-02-04T12:05:01;101701.00;;;19.70
19644;BMP180;9970;-36.854;174.870;2024-02-04T12:07:38;101687.00;;;19.70
19644;BMP180;9970;-36.854;174.870;2024-02-04T12:10:13;101689.00;;;19.60
19644;BMP180;9970;-36.854;174.870;2024-02-04T12:12:47;101684.00;;;19.60
19644;BMP180;9970;-36.854;174.870;2024-02-04T12:15:21;101684.00;;;19.60
19644;BMP180;9970;-36.854;174.870;2024-02-04T12:17:55;101687.00;;;19.60
19644;BMP180;9970;-36.854;174.870;2024-02-04T12:20:28;101685.00;;;19.60
19644;BMP180;9970;-36.854;174.870;2024-02-04T12:23:04;101674.00;;;19.50
19644;BMP180;9970;-36.854;174.870;2024-02-04T12:25:35;101679.00;;;19.50
19644;BMP180;9970;-36.854;174.870;2024-02-04T12:28:09;101679.00;;;19.50
19644;BMP180;9970;-36.854;174.870;2024-02-04T12:30:52;101676.00;;;19.50
19644;BMP180;9970;-36.854;174.870;2024-02-04T12:33:19;101680.00;;;19.50
19644;BMP180;9970;-36.854;174.870;2024-02-04T12:35:53;101679.00;;;19.40
19644;BMP180;9970;-36.854;174.870;2024-02-04T12:38:27;101672.00;;;19.50
19644;BMP180;9970;-36.854;174.870;2024-02-04T12:41:03;101671.00;;;19.40
19644;BMP180;9970;-36.854;174.870;2024-02-04T12:43:37;101674.00;;;19.40
19644;BMP180;9970;-36.854;174.870;2024-02-04T12:46:11;101667.00;;;19.40
19644;BMP180;9970;-36.854;174.870;2024-02-04T12:48:50;101664.00;;;19.40
19644;BMP180;9970;-36.854;174.870;2024-02-04T12:51:30;101668.00;;;19.40
19644;BMP180;9970;-36.854;174.870;2024-02-04T12:54:08;101671.00;;;19.30
19644;BMP180;9970;-36.854;174.870;2024-02-04T12:56:49;101662.00;;;19.30
19644;BMP180;9970;-36.854;174.870;2024-02-04T12:59:29;101659.00;;;19.20
19644;BMP180;9970;-36.854;174.870;2024-02-04T13:02:04;101664.00;;;19.30
19644;BMP180;9970;-36.854;174.870;2024-02-04T13:04:37;101664.00;;;19.20
19644;BMP180;9970;-36.854;174.870;2024-02-04T13:07:14;101665.00;;;19.20
19644;BMP180;9970;-36.854;174.870;2024-02-04T13:09:57;101666.00;;;19.20
19644;BMP180;9970;-36.854;174.870;2024-02-04T13:12:31;101657.00;;;19.20
19644;BMP180;9970;-36.854;174.870;2024-02-04T13:15:06;101656.00;;;19.20
19644;BMP180;9970;-36.854;174.870;2024-02-04T13:17:39;101661.00;;;19.20
19644;BMP180;9970;-36.854;174.870;2024-02-04T13:20:12;101654.00;;;19.10
19644;BMP180;9970;-36.854;174.870;2024-02-04T13:22:46;101649.00;;;19.10
19644;BMP180;9970;-36.854;174.870;2024-02-04T13:25:20;101663.00;;;19.10
19644;BMP180;9970;-36.854;174.870;2024-02-04T13:27:54;101665.00;;;19.10
19644;BMP180;9970;-36.854;174.870;2024-02-04T13:30:31;101661.00;;;19.10
19644;BMP180;9970;-36.854;174.870;2024-02-04T13:33:05;101653.00;;;19.10
19644;BMP180;9970;-36.854;174.870;2024-02-04T13:35:39;101663.00;;;19.10
19644;BMP180;9970;-36.854;174.870;2024-02-04T13:38:13;101670.00;;;19.10
19644;BMP180;9970;-36.854;174.870;2024-02-04T13:40:46;101679.00;;;19.10
19644;BMP180;9970;-36.854;174.870;2024-02-04T13:43:20;101673.00;;;19.00
19644;BMP180;9970;-36.854;174.870;2024-02-04T13:45:53;101668.00;;;19.00
19644;BMP180;9970;-36.854;174.870;2024-02-04T13:48:26;101663.00;;;19.00
19644;BMP180;9970;-36.854;174.870;2024-02-04T13:51:00;101654.00;;;19.00
19644;BMP180;9970;-36.854;174.870;2024-02-04T13:53:33;101665.00;;;18.90
19644;BMP180;9970;-36.854;174.870;2024-02-04T13:56:07;101658.00;;;18.90
19644;BMP180;9970;-36.854;174.870;2024-02-04T13:58:40;101667.00;;;18.90
19644;BMP180;9970;-36.854;174.870;2024-02-04T14:01:13;101662.00;;;18.90
19644;BMP180;9970;-36.854;174.870;2024-02-04T14:03:47;101663.00;;;18.90
19644;BMP180;9970;-36.854;174.870;2024-02-04T14:06:21;101657.00;;;18.90
19644;BMP180;9970;-36.854;174.870;2024-02-04T14:08:54;101652.00;;;18.90
19644;BMP180;9970;-36.854;174.870;2024-02-04T14:11:27;101661.00;;;18.80
19644;BMP180;9970;-36.854;174.870;2024-02-04T14:14:00;101665.00;;;18.80
19644;BMP180;9970;-36.854;174.870;2024-02-04T14:16:34;101674.00;;;18.70